Ngahue 4 — PG6771 — position and weather

sailwx.info

Track history (hours):
 
Tides and Currents Weather Stations Pressure Air Temp Water Temp Dewpoint Dewpoint Depression Visibility Wind Speed Wind Dir Waves Ship Positions

Ngahue 4

Last reported at 2018-Jul-21 22:55 UTC. Time now 2018-Jul-21 23:09 UTC.
Position N 50°34' W 002°27'.

Length 18 m; draft 2.3 m.

Type: Sailing vessel. MMSI: 244020377.

Date/timePositionNaut miles runAvg speedWind from/ knotsBaromVisibWave heightAir tempDewpointWater temp
2018-Jul-21 22:55N 50°34' W 002°27'0 0.0
2018-Jul-21 22:30N 50°34' W 002°27'0 0.0
2018-Jul-21 22:00N 50°34' W 002°27'0 0.0
2018-Jul-21 21:30N 50°34' W 002°27'0 0.0
2018-Jul-21 21:00N 50°34' W 002°27'0 0.0
2018-Jul-21 20:30N 50°34' W 002°27'0 0.0
2018-Jul-21 20:00N 50°34' W 002°27'0 0.0
2018-Jul-21 19:30N 50°34' W 002°27'0 0.0
2018-Jul-21 19:00N 50°34' W 002°27'0 0.0
2018-Jul-21 18:30N 50°34' W 002°27'0 0.5
2018-Jul-21 18:00N 50°35' W 002°27'2 3.0
2018-Jul-21 17:27N 50°35' W 002°25'6 4.9
2018-Jul-21 16:19N 50°29' W 002°27'2 6.4
2018-Jul-21 16:00N 50°29' W 002°30'4 7.2
2018-Jul-21 15:30N 50°28' W 002°36'4 7.2
2018-Jul-21 15:01N 50°27' W 002°41'4 6.8
2018-Jul-21 14:30N 50°27' W 002°47'6 6.4
2018-Jul-21 13:30N 50°25' W 002°56'3 6.2
2018-Jul-21 13:01N 50°24' W 003°01'3 6.0
2018-Jul-21 12:30N 50°24' W 003°06'3 5.8
2018-Jul-21 12:00N 50°23' W 003°10'3 5.6
2018-Jul-21 11:30N 50°23' W 003°15'3 5.1
2018-Jul-21 11:00N 50°24' W 003°18'3 5.6
2018-Jul-21 10:30N 50°26' W 003°21'3 5.7
2018-Jul-21 10:00N 50°26' W 003°26'3 5.7
2018-Jul-21 09:30N 50°27' W 003°30'1 2.7
2018-Jul-21 09:00N 50°28' W 003°32'0 0.0
2018-Jul-21 08:30N 50°28' W 003°32'0 0.0
2018-Jul-21 08:00N 50°28' W 003°32'0 0.0
2018-Jul-19 12:16N 50°28' W 003°32'0 0.0
2018-Jul-19 12:00N 50°28' W 003°32'0 0.0
2018-Jul-19 11:30N 50°28' W 003°32'1 2.2
2018-Jul-19 11:00N 50°26' W 003°32'2 4.5
2018-Jul-19 10:30N 50°24' W 003°31'0 0.9
2018-Jul-19 10:00N 50°24' W 003°31'  
2018-Jul-16 17:37N 50°24' W 003°31'0 0.0
2018-Jul-16 17:30N 50°24' W 003°31'1 1.3
2018-Jul-16 17:00N 50°24' W 003°30'2 3.8
2018-Jul-16 16:30N 50°22' W 003°29'3 5.3
2018-Jul-16 16:00N 50°20' W 003°31'2 4.8
2018-Jul-16 15:30N 50°18' W 003°33'2 4.5
2018-Jul-16 15:00N 50°16' W 003°35'2 4.5
2018-Jul-16 14:30N 50°14' W 003°36'2 4.6
2018-Jul-16 14:00N 50°13' W 003°39'11 4.3
2018-Jul-16 11:33N 50°14' W 003°55'0 5.8
2018-Jul-16 11:29N 50°14' W 003°56'4 6.0
2018-Jul-16 10:51N 50°16' W 004°01'3 5.7
2018-Jul-16 10:24N 50°17' W 004°05'2 5.4
2018-Jul-16 10:00N 50°19' W 004°07'3 5.7
2018-Jul-16 09:30N 50°21' W 004°08'1 2.3
2018-Jul-16 09:00N 50°22' W 004°10'0 0.0
2018-Jul-16 08:30N 50°22' W 004°10'0 0.0
2018-Jul-16 08:00N 50°22' W 004°10'0 0.0
2018-Jul-16 07:30N 50°22' W 004°10'  
Track history (hours):
 
Tides and Currents Weather Stations Pressure Air Temp Water Temp Dewpoint Dewpoint Depression Visibility Wind Speed Wind Dir Waves Ship Positions

Ngahue 4

Last reported at 2018-Jul-21 22:55 UTC. Time now 2018-Jul-21 23:09 UTC.
Position N 50°34' W 002°27'.

Length 18 m; draft 2.3 m.

Type: Sailing vessel. MMSI: 244020377.

Date/timePositionNaut miles runAvg speedWind from/ knotsBaromVisibWave heightAir tempDewpointWater temp
2018-Jul-21 22:55N 50°34' W 002°27'0 0.0
2018-Jul-21 22:30N 50°34' W 002°27'0 0.0
2018-Jul-21 22:00N 50°34' W 002°27'0 0.0
2018-Jul-21 21:30N 50°34' W 002°27'0 0.0
2018-Jul-21 21:00N 50°34' W 002°27'0 0.0
2018-Jul-21 20:30N 50°34' W 002°27'0 0.0
2018-Jul-21 20:00N 50°34' W 002°27'0 0.0
2018-Jul-21 19:30N 50°34' W 002°27'0 0.0
2018-Jul-21 19:00N 50°34' W 002°27'0 0.0
2018-Jul-21 18:30N 50°34' W 002°27'0 0.5
2018-Jul-21 18:00N 50°35' W 002°27'2 3.0
2018-Jul-21 17:27N 50°35' W 002°25'6 4.9
2018-Jul-21 16:19N 50°29' W 002°27'2 6.4
2018-Jul-21 16:00N 50°29' W 002°30'4 7.2
2018-Jul-21 15:30N 50°28' W 002°36'4 7.2
2018-Jul-21 15:01N 50°27' W 002°41'4 6.8
2018-Jul-21 14:30N 50°27' W 002°47'6 6.4
2018-Jul-21 13:30N 50°25' W 002°56'3 6.2
2018-Jul-21 13:01N 50°24' W 003°01'3 6.0
2018-Jul-21 12:30N 50°24' W 003°06'3 5.8
2018-Jul-21 12:00N 50°23' W 003°10'3 5.6
2018-Jul-21 11:30N 50°23' W 003°15'3 5.1
2018-Jul-21 11:00N 50°24' W 003°18'3 5.6
2018-Jul-21 10:30N 50°26' W 003°21'3 5.7
2018-Jul-21 10:00N 50°26' W 003°26'3 5.7
2018-Jul-21 09:30N 50°27' W 003°30'1 2.7
2018-Jul-21 09:00N 50°28' W 003°32'0 0.0
2018-Jul-21 08:30N 50°28' W 003°32'0 0.0
2018-Jul-21 08:00N 50°28' W 003°32'0 0.0
2018-Jul-19 12:16N 50°28' W 003°32'0 0.0
2018-Jul-19 12:00N 50°28' W 003°32'0 0.0
2018-Jul-19 11:30N 50°28' W 003°32'1 2.2
2018-Jul-19 11:00N 50°26' W 003°32'2 4.5
2018-Jul-19 10:30N 50°24' W 003°31'0 0.9
2018-Jul-19 10:00N 50°24' W 003°31'  
2018-Jul-16 17:37N 50°24' W 003°31'0 0.0
2018-Jul-16 17:30N 50°24' W 003°31'1 1.3
2018-Jul-16 17:00N 50°24' W 003°30'2 3.8
2018-Jul-16 16:30N 50°22' W 003°29'3 5.3
2018-Jul-16 16:00N 50°20' W 003°31'2 4.8
2018-Jul-16 15:30N 50°18' W 003°33'2 4.5
2018-Jul-16 15:00N 50°16' W 003°35'2 4.5
2018-Jul-16 14:30N 50°14' W 003°36'2 4.6
2018-Jul-16 14:00N 50°13' W 003°39'11 4.3
2018-Jul-16 11:33N 50°14' W 003°55'0 5.8
2018-Jul-16 11:29N 50°14' W 003°56'4 6.0
2018-Jul-16 10:51N 50°16' W 004°01'3 5.7
2018-Jul-16 10:24N 50°17' W 004°05'2 5.4
2018-Jul-16 10:00N 50°19' W 004°07'3 5.7
2018-Jul-16 09:30N 50°21' W 004°08'1 2.3
2018-Jul-16 09:00N 50°22' W 004°10'0 0.0
2018-Jul-16 08:30N 50°22' W 004°10'0 0.0
2018-Jul-16 08:00N 50°22' W 004°10'0 0.0
2018-Jul-16 07:30N 50°22' W 004°10'  

Dump ship's entire track history